sensor_id;sensor_type;location;lat;lon;timestamp;P1;durP1;ratioP1;P2;durP2;ratioP2
74102;SDS011;62853;46.166;3.640;2023-06-22T00:00:50;4.57;;;3.05;;
74102;SDS011;62853;46.166;3.640;2023-06-22T00:03:17;3.65;;;3.30;;
74102;SDS011;62853;46.166;3.640;2023-06-22T00:05:44;5.55;;;3.47;;
74102;SDS011;62853;46.166;3.640;2023-06-22T00:08:10;4.05;;;3.38;;
74102;SDS011;62853;46.166;3.640;2023-06-22T00:10:35;5.10;;;3.08;;
74102;SDS011;62853;46.166;3.640;2023-06-22T00:13:01;6.18;;;3.88;;
74102;SDS011;62853;46.166;3.640;2023-06-22T00:15:26;4.40;;;3.80;;
74102;SDS011;62853;46.166;3.640;2023-06-22T00:17:52;8.75;;;3.60;;
74102;SDS011;62853;46.166;3.640;2023-06-22T00:20:18;4.45;;;3.90;;
74102;SDS011;62853;46.166;3.640;2023-06-22T00:22:43;5.00;;;4.00;;
74102;SDS011;62853;46.166;3.640;2023-06-22T00:25:09;4.78;;;3.53;;
74102;SDS011;62853;46.166;3.640;2023-06-22T00:27:36;5.45;;;3.45;;
74102;SDS011;62853;46.166;3.640;2023-06-22T00:30:02;5.60;;;3.72;;
74102;SDS011;62853;46.166;3.640;2023-06-22T00:32:28;4.93;;;3.65;;
74102;SDS011;62853;46.166;3.640;2023-06-22T00:34:53;5.57;;;4.30;;
74102;SDS011;62853;46.166;3.640;2023-06-22T00:37:19;6.70;;;4.85;;
74102;SDS011;62853;46.166;3.640;2023-06-22T00:39:44;8.43;;;7.40;;
74102;SDS011;62853;46.166;3.640;2023-06-22T00:42:10;7.85;;;7.07;;
74102;SDS011;62853;46.166;3.640;2023-06-22T00:44:35;11.23;;;9.13;;
74102;SDS011;62853;46.166;3.640;2023-06-22T00:47:01;12.65;;;8.10;;
74102;SDS011;62853;46.166;3.640;2023-06-22T00:49:28;10.85;;;9.45;;
74102;SDS011;62853;46.166;3.640;2023-06-22T00:51:54;11.25;;;10.02;;
74102;SDS011;62853;46.166;3.640;2023-06-22T00:54:21;13.45;;;11.07;;
74102;SDS011;62853;46.166;3.640;2023-06-22T00:56:50;12.80;;;11.50;;
74102;SDS011;62853;46.166;3.640;2023-06-22T00:59:19;13.52;;;11.30;;
74102;SDS011;62853;46.166;3.640;2023-06-22T01:01:45;12.15;;;10.93;;
74102;SDS011;62853;46.166;3.640;2023-06-22T01:04:11;12.35;;;11.15;;
74102;SDS011;62853;46.166;3.640;2023-06-22T01:06:38;13.15;;;11.82;;
74102;SDS011;62853;46.166;3.640;2023-06-22T01:09:15;12.65;;;11.40;;
74102;SDS011;62853;46.166;3.640;2023-06-22T01:11:45;12.75;;;11.50;;
74102;SDS011;62853;46.166;3.640;2023-06-22T01:14:23;12.80;;;11.50;;
74102;SDS011;62853;46.166;3.640;2023-06-22T01:16:52;17.77;;;11.35;;
74102;SDS011;62853;46.166;3.640;2023-06-22T01:21:49;12.73;;;11.43;;
74102;SDS011;62853;46.166;3.640;2023-06-22T01:24:30;12.43;;;11.18;;
74102;SDS011;62853;46.166;3.640;2023-06-22T01:29:46;12.48;;;11.27;;
74102;SDS011;62853;46.166;3.640;2023-06-22T01:32:15;12.40;;;11.15;;
74102;SDS011;62853;46.166;3.640;2023-06-22T01:34:41;13.18;;;11.55;;
74102;SDS011;62853;46.166;3.640;2023-06-22T01:37:07;13.32;;;11.63;;
74102;SDS011;62853;46.166;3.640;2023-06-22T01:39:33;11.93;;;10.70;;
74102;SDS011;62853;46.166;3.640;2023-06-22T01:41:59;12.70;;;11.40;;
74102;SDS011;62853;46.166;3.640;2023-06-22T01:44:25;12.38;;;11.00;;
74102;SDS011;62853;46.166;3.640;2023-06-22T01:46:52;12.77;;;11.48;;
74102;SDS011;62853;46.166;3.640;2023-06-22T01:49:17;12.43;;;11.18;;
74102;SDS011;62853;46.166;3.640;2023-06-22T01:51:43;12.95;;;11.48;;
74102;SDS011;62853;46.166;3.640;2023-06-22T01:54:08;13.15;;;11.38;;
74102;SDS011;62853;46.166;3.640;2023-06-22T01:56:34;12.25;;;10.98;;
74102;SDS011;62853;46.166;3.640;2023-06-22T02:02:02;12.30;;;11.10;;
74102;SDS011;62853;46.166;3.640;2023-06-22T02:07:28;11.82;;;10.68;;
74102;SDS011;62853;46.166;3.640;2023-06-22T02:09:57;13.68;;;12.30;;
74102;SDS011;62853;46.166;3.640;2023-06-22T02:12:25;13.63;;;12.10;;
74102;SDS011;62853;46.166;3.640;2023-06-22T02:14:53;12.27;;;11.18;;
74102;SDS011;62853;46.166;3.640;2023-06-22T02:17:19;12.55;;;11.40;;
74102;SDS011;62853;46.166;3.640;2023-06-22T02:19:45;12.50;;;11.30;;
74102;SDS011;62853;46.166;3.640;2023-06-22T02:22:10;12.98;;;11.68;;
74102;SDS011;62853;46.166;3.640;2023-06-22T02:24:38;13.10;;;11.70;;
74102;SDS011;62853;46.166;3.640;2023-06-22T02:27:04;12.88;;;11.60;;
74102;SDS011;62853;46.166;3.640;2023-06-22T02:29:32;12.55;;;11.20;;
74102;SDS011;62853;46.166;3.640;2023-06-22T02:31:57;12.88;;;11.70;;
74102;SDS011;62853;46.166;3.640;2023-06-22T02:34:23;12.57;;;11.38;;
74102;SDS011;62853;46.166;3.640;2023-06-22T02:36:49;14.25;;;11.88;;
74102;SDS011;62853;46.166;3.640;2023-06-22T02:39:21;13.57;;;12.27;;
74102;SDS011;62853;46.166;3.640;2023-06-22T02:41:48;13.93;;;12.25;;
74102;SDS011;62853;46.166;3.640;2023-06-22T02:44:18;13.70;;;12.43;;
74102;SDS011;62853;46.166;3.640;2023-06-22T02:46:44;13.68;;;12.38;;
74102;SDS011;62853;46.166;3.640;2023-06-22T02:49:10;16.58;;;13.27;;
74102;SDS011;62853;46.166;3.640;2023-06-22T02:51:38;13.80;;;12.32;;
74102;SDS011;62853;46.166;3.640;2023-06-22T02:54:05;16.15;;;14.52;;
74102;SDS011;62853;46.166;3.640;2023-06-22T02:56:31;15.20;;;13.75;;
74102;SDS011;62853;46.166;3.640;2023-06-22T02:58:56;14.82;;;13.43;;
74102;SDS011;62853;46.166;3.640;2023-06-22T03:01:29;15.18;;;13.68;;
74102;SDS011;62853;46.166;3.640;2023-06-22T03:03:58;14.45;;;12.95;;
74102;SDS011;62853;46.166;3.640;2023-06-22T03:06:24;14.45;;;13.07;;
74102;SDS011;62853;46.166;3.640;2023-06-22T03:08:53;14.07;;;12.68;;
74102;SDS011;62853;46.166;3.640;2023-06-22T03:11:23;15.02;;;13.52;;
74102;SDS011;62853;46.166;3.640;2023-06-22T03:13:49;15.30;;;13.73;;
74102;SDS011;62853;46.166;3.640;2023-06-22T03:16:17;15.45;;;13.57;;
74102;SDS011;62853;46.166;3.640;2023-06-22T03:18:43;14.73;;;13.32;;
74102;SDS011;62853;46.166;3.640;2023-06-22T03:21:08;14.98;;;13.50;;
74102;SDS011;62853;46.166;3.640;2023-06-22T03:23:34;14.80;;;13.40;;
74102;SDS011;62853;46.166;3.640;2023-06-22T03:25:59;15.70;;;13.93;;
74102;SDS011;62853;46.166;3.640;2023-06-22T03:28:24;14.88;;;13.10;;
74102;SDS011;62853;46.166;3.640;2023-06-22T03:30:50;15.90;;;14.30;;
74102;SDS011;62853;46.166;3.640;2023-06-22T03:33:15;15.93;;;14.52;;
74102;SDS011;62853;46.166;3.640;2023-06-22T03:35:40;16.80;;;15.13;;
74102;SDS011;62853;46.166;3.640;2023-06-22T03:38:07;15.98;;;14.43;;
74102;SDS011;62853;46.166;3.640;2023-06-22T03:40:32;16.58;;;14.90;;
74102;SDS011;62853;46.166;3.640;2023-06-22T03:42:58;16.95;;;15.13;;
74102;SDS011;62853;46.166;3.640;2023-06-22T03:45:23;16.67;;;14.98;;
74102;SDS011;62853;46.166;3.640;2023-06-22T03:47:48;17.35;;;15.27;;
74102;SDS011;62853;46.166;3.640;2023-06-22T03:50:14;17.60;;;15.32;;
74102;SDS011;62853;46.166;3.640;2023-06-22T03:52:39;16.88;;;15.27;;
74102;SDS011;62853;46.166;3.640;2023-06-22T03:55:05;17.20;;;15.23;;
74102;SDS011;62853;46.166;3.640;2023-06-22T03:57:31;17.45;;;15.63;;
74102;SDS011;62853;46.166;3.640;2023-06-22T03:59:57;17.50;;;15.60;;
74102;SDS011;62853;46.166;3.640;2023-06-22T04:02:23;16.67;;;15.07;;
74102;SDS011;62853;46.166;3.640;2023-06-22T04:04:48;17.50;;;15.52;;
74102;SDS011;62853;46.166;3.640;2023-06-22T04:07:14;16.70;;;15.10;;
74102;SDS011;62853;46.166;3.640;2023-06-22T04:09:39;17.40;;;15.60;;
74102;SDS011;62853;46.166;3.640;2023-06-22T04:12:05;16.45;;;14.85;;
74102;SDS011;62853;46.166;3.640;2023-06-22T04:14:30;17.05;;;15.30;;
74102;SDS011;62853;46.166;3.640;2023-06-22T04:16:57;16.55;;;15.00;;
74102;SDS011;62853;46.166;3.640;2023-06-22T04:19:22;16.60;;;15.10;;
74102;SDS011;62853;46.166;3.640;2023-06-22T04:21:48;17.08;;;15.45;;
74102;SDS011;62853;46.166;3.640;2023-06-22T04:24:14;16.83;;;15.27;;
74102;SDS011;62853;46.166;3.640;2023-06-22T04:26:39;17.35;;;15.63;;
74102;SDS011;62853;46.166;3.640;2023-06-22T04:29:06;16.83;;;15.23;;
74102;SDS011;62853;46.166;3.640;2023-06-22T04:31:36;16.67;;;14.98;;
74102;SDS011;62853;46.166;3.640;2023-06-22T04:34:02;17.52;;;15.80;;
74102;SDS011;62853;46.166;3.640;2023-06-22T04:36:35;17.75;;;14.95;;
74102;SDS011;62853;46.166;3.640;2023-06-22T04:39:03;16.85;;;15.25;;
74102;SDS011;62853;46.166;3.640;2023-06-22T04:41:34;18.60;;;16.65;;
74102;SDS011;62853;46.166;3.640;2023-06-22T04:44:09;17.98;;;16.27;;
74102;SDS011;62853;46.166;3.640;2023-06-22T04:46:35;18.20;;;16.30;;
74102;SDS011;62853;46.166;3.640;2023-06-22T04:49:09;19.02;;;17.13;;
74102;SDS011;62853;46.166;3.640;2023-06-22T04:51:39;18.75;;;16.83;;
74102;SDS011;62853;46.166;3.640;2023-06-22T04:54:05;19.15;;;17.20;;
74102;SDS011;62853;46.166;3.640;2023-06-22T04:56:31;20.17;;;18.38;;
74102;SDS011;62853;46.166;3.640;2023-06-22T04:58:57;20.20;;;18.20;;
74102;SDS011;62853;46.166;3.640;2023-06-22T05:01:23;21.23;;;19.02;;
74102;SDS011;62853;46.166;3.640;2023-06-22T05:03:49;21.23;;;19.17;;
74102;SDS011;62853;46.166;3.640;2023-06-22T05:06:14;20.75;;;18.80;;
74102;SDS011;62853;46.166;3.640;2023-06-22T05:08:40;22.20;;;19.45;;
74102;SDS011;62853;46.166;3.640;2023-06-22T05:11:06;21.48;;;18.90;;
74102;SDS011;62853;46.166;3.640;2023-06-22T05:13:31;21.88;;;19.35;;
74102;SDS011;62853;46.166;3.640;2023-06-22T05:15:57;21.60;;;19.42;;
74102;SDS011;62853;46.166;3.640;2023-06-22T05:18:27;22.17;;;19.83;;
74102;SDS011;62853;46.166;3.640;2023-06-22T05:20:54;21.88;;;19.67;;
74102;SDS011;62853;46.166;3.640;2023-06-22T05:23:19;22.92;;;20.73;;
74102;SDS011;62853;46.166;3.640;2023-06-22T05:25:45;23.00;;;20.58;;
74102;SDS011;62853;46.166;3.640;2023-06-22T05:28:10;23.08;;;20.85;;
74102;SDS011;62853;46.166;3.640;2023-06-22T05:30:36;22.95;;;20.52;;
74102;SDS011;62853;46.166;3.640;2023-06-22T05:33:02;22.00;;;19.83;;
74102;SDS011;62853;46.166;3.640;2023-06-22T05:35:27;21.90;;;19.70;;
74102;SDS011;62853;46.166;3.640;2023-06-22T05:37:53;21.15;;;18.98;;
74102;SDS011;62853;46.166;3.640;2023-06-22T05:40:19;22.15;;;20.05;;
74102;SDS011;62853;46.166;3.640;2023-06-22T05:42:44;21.48;;;19.48;;
74102;SDS011;62853;46.166;3.640;2023-06-22T05:45:09;21.88;;;19.70;;
74102;SDS011;62853;46.166;3.640;2023-06-22T05:47:39;21.73;;;19.58;;
74102;SDS011;62853;46.166;3.640;2023-06-22T05:50:04;22.13;;;19.95;;
74102;SDS011;62853;46.166;3.640;2023-06-22T05:52:33;21.55;;;19.42;;
74102;SDS011;62853;46.166;3.640;2023-06-22T05:55:03;22.13;;;19.90;;
74102;SDS011;62853;46.166;3.640;2023-06-22T06:03:55;27.13;;;18.77;;
74102;SDS011;62853;46.166;3.640;2023-06-22T06:06:21;21.85;;;19.50;;
74102;SDS011;62853;46.166;3.640;2023-06-22T06:08:47;23.45;;;20.33;;
74102;SDS011;62853;46.166;3.640;2023-06-22T06:11:13;22.20;;;19.80;;
74102;SDS011;62853;46.166;3.640;2023-06-22T06:13:38;22.98;;;19.50;;
74102;SDS011;62853;46.166;3.640;2023-06-22T06:16:03;24.08;;;20.80;;
74102;SDS011;62853;46.166;3.640;2023-06-22T06:21:31;21.70;;;19.40;;
74102;SDS011;62853;46.166;3.640;2023-06-22T06:23:56;22.90;;;20.70;;
74102;SDS011;62853;46.166;3.640;2023-06-22T06:26:28;21.52;;;19.45;;
74102;SDS011;62853;46.166;3.640;2023-06-22T06:33:53;21.17;;;19.17;;
74102;SDS011;62853;46.166;3.640;2023-06-22T06:46:20;23.42;;;21.13;;
74102;SDS011;62853;46.166;3.640;2023-06-22T06:52:21;23.73;;;21.08;;
74102;SDS011;62853;46.166;3.640;2023-06-22T06:54:46;23.73;;;21.42;;
74102;SDS011;62853;46.166;3.640;2023-06-22T06:57:11;22.67;;;20.48;;
74102;SDS011;62853;46.166;3.640;2023-06-22T06:59:40;23.10;;;20.67;;
74102;SDS011;62853;46.166;3.640;2023-06-22T07:02:05;23.27;;;20.92;;
74102;SDS011;62853;46.166;3.640;2023-06-22T07:04:30;23.63;;;21.23;;
74102;SDS011;62853;46.166;3.640;2023-06-22T07:06:56;23.15;;;20.77;;
74102;SDS011;62853;46.166;3.640;2023-06-22T07:09:21;24.35;;;22.08;;
74102;SDS011;62853;46.166;3.640;2023-06-22T07:11:46;23.58;;;21.08;;
74102;SDS011;62853;46.166;3.640;2023-06-22T07:35:07;21.55;;;19.45;;
74102;SDS011;62853;46.166;3.640;2023-06-22T07:37:33;22.77;;;20.33;;
74102;SDS011;62853;46.166;3.640;2023-06-22T07:39:59;21.88;;;19.77;;
74102;SDS011;62853;46.166;3.640;2023-06-22T07:42:25;21.33;;;19.13;;
74102;SDS011;62853;46.166;3.640;2023-06-22T07:44:51;23.00;;;20.52;;
74102;SDS011;62853;46.166;3.640;2023-06-22T07:50:24;23.88;;;20.35;;
74102;SDS011;62853;46.166;3.640;2023-06-22T07:52:50;21.50;;;18.77;;
74102;SDS011;62853;46.166;3.640;2023-06-22T07:55:17;20.67;;;18.55;;
74102;SDS011;62853;46.166;3.640;2023-06-22T07:57:49;22.92;;;20.48;;
74102;SDS011;62853;46.166;3.640;2023-06-22T08:00:17;20.73;;;18.63;;
74102;SDS011;62853;46.166;3.640;2023-06-22T08:02:45;20.48;;;18.40;;
74102;SDS011;62853;46.166;3.640;2023-06-22T08:05:11;20.75;;;18.35;;
74102;SDS011;62853;46.166;3.640;2023-06-22T08:07:38;20.77;;;18.45;;
74102;SDS011;62853;46.166;3.640;2023-06-22T08:10:11;21.60;;;19.40;;
74102;SDS011;62853;46.166;3.640;2023-06-22T08:12:38;22.33;;;20.02;;
74102;SDS011;62853;46.166;3.640;2023-06-22T08:15:07;23.10;;;20.90;;
74102;SDS011;62853;46.166;3.640;2023-06-22T08:17:33;26.48;;;19.60;;
74102;SDS011;62853;46.166;3.640;2023-06-22T08:26:25;21.55;;;19.40;;
74102;SDS011;62853;46.166;3.640;2023-06-22T08:28:50;21.05;;;19.02;;
74102;SDS011;62853;46.166;3.640;2023-06-22T08:31:16;20.98;;;18.70;;
74102;SDS011;62853;46.166;3.640;2023-06-22T08:33:41;21.77;;;19.70;;
74102;SDS011;62853;46.166;3.640;2023-06-22T08:39:06;21.27;;;19.13;;
74102;SDS011;62853;46.166;3.640;2023-06-22T08:41:32;21.85;;;18.55;;
74102;SDS011;62853;46.166;3.640;2023-06-22T08:43:57;20.20;;;18.25;;
74102;SDS011;62853;46.166;3.640;2023-06-22T08:46:23;20.63;;;18.48;;
74102;SDS011;62853;46.166;3.640;2023-06-22T08:49:05;20.17;;;18.20;;
74102;SDS011;62853;46.166;3.640;2023-06-22T08:51:31;20.98;;;19.00;;
74102;SDS011;62853;46.166;3.640;2023-06-22T08:53:56;22.48;;;20.33;;
74102;SDS011;62853;46.166;3.640;2023-06-22T08:56:22;21.55;;;19.52;;
74102;SDS011;62853;46.166;3.640;2023-06-22T08:58:48;21.80;;;19.63;;
74102;SDS011;62853;46.166;3.640;2023-06-22T09:01:13;24.05;;;20.77;;
74102;SDS011;62853;46.166;3.640;2023-06-22T09:03:42;21.95;;;19.35;;
74102;SDS011;62853;46.166;3.640;2023-06-22T09:06:08;22.65;;;20.35;;
74102;SDS011;62853;46.166;3.640;2023-06-22T09:08:34;21.33;;;19.25;;
74102;SDS011;62853;46.166;3.640;2023-06-22T09:11:15;22.23;;;20.10;;
74102;SDS011;62853;46.166;3.640;2023-06-22T09:13:41;21.63;;;19.33;;
74102;SDS011;62853;46.166;3.640;2023-06-22T09:16:07;21.80;;;19.50;;
74102;SDS011;62853;46.166;3.640;2023-06-22T09:18:39;21.25;;;19.25;;
74102;SDS011;62853;46.166;3.640;2023-06-22T09:21:04;20.63;;;18.52;;
74102;SDS011;62853;46.166;3.640;2023-06-22T09:23:30;20.67;;;18.67;;
74102;SDS011;62853;46.166;3.640;2023-06-22T09:25:55;20.92;;;18.77;;
74102;SDS011;62853;46.166;3.640;2023-06-22T09:28:21;20.45;;;18.30;;
74102;SDS011;62853;46.166;3.640;2023-06-22T09:30:46;20.35;;;18.33;;
74102;SDS011;62853;46.166;3.640;2023-06-22T09:33:12;20.83;;;18.77;;
74102;SDS011;62853;46.166;3.640;2023-06-22T09:35:37;19.55;;;17.52;;
74102;SDS011;62853;46.166;3.640;2023-06-22T09:38:03;21.88;;;17.25;;
74102;SDS011;62853;46.166;3.640;2023-06-22T09:40:31;20.30;;;18.40;;
74102;SDS011;62853;46.166;3.640;2023-06-22T09:43:00;20.33;;;18.27;;
74102;SDS011;62853;46.166;3.640;2023-06-22T09:45:25;19.25;;;17.17;;
74102;SDS011;62853;46.166;3.640;2023-06-22T09:47:51;20.10;;;18.27;;
74102;SDS011;62853;46.166;3.640;2023-06-22T09:50:16;21.40;;;18.42;;
74102;SDS011;62853;46.166;3.640;2023-06-22T09:52:41;20.52;;;17.67;;
74102;SDS011;62853;46.166;3.640;2023-06-22T09:55:09;18.90;;;16.95;;
74102;SDS011;62853;46.166;3.640;2023-06-22T09:57:35;20.48;;;18.42;;
74102;SDS011;62853;46.166;3.640;2023-06-22T10:00:00;20.42;;;18.35;;
74102;SDS011;62853;46.166;3.640;2023-06-22T10:02:25;19.65;;;17.63;;
74102;SDS011;62853;46.166;3.640;2023-06-22T10:04:51;20.92;;;18.67;;
74102;SDS011;62853;46.166;3.640;2023-06-22T10:07:16;20.88;;;18.70;;
74102;SDS011;62853;46.166;3.640;2023-06-22T10:09:41;20.17;;;18.27;;
74102;SDS011;62853;46.166;3.640;2023-06-22T10:12:07;21.05;;;18.92;;
74102;SDS011;62853;46.166;3.640;2023-06-22T10:14:33;20.45;;;18.38;;
74102;SDS011;62853;46.166;3.640;2023-06-22T10:16:58;20.25;;;18.17;;
74102;SDS011;62853;46.166;3.640;2023-06-22T10:19:23;23.92;;;18.52;;
74102;SDS011;62853;46.166;3.640;2023-06-22T10:21:49;20.80;;;18.23;;
74102;SDS011;62853;46.166;3.640;2023-06-22T10:24:14;21.23;;;19.13;;
74102;SDS011;62853;46.166;3.640;2023-06-22T10:26:40;22.63;;;20.23;;
74102;SDS011;62853;46.166;3.640;2023-06-22T10:29:06;21.63;;;19.42;;
74102;SDS011;62853;46.166;3.640;2023-06-22T10:31:33;22.95;;;20.83;;
74102;SDS011;62853;46.166;3.640;2023-06-22T10:33:58;26.17;;;20.67;;
74102;SDS011;62853;46.166;3.640;2023-06-22T10:36:23;23.25;;;20.95;;
74102;SDS011;62853;46.166;3.640;2023-06-22T10:38:49;23.60;;;21.30;;
74102;SDS011;62853;46.166;3.640;2023-06-22T10:41:14;24.45;;;22.08;;
74102;SDS011;62853;46.166;3.640;2023-06-22T10:43:41;31.13;;;25.77;;
74102;SDS011;62853;46.166;3.640;2023-06-22T10:46:06;35.70;;;27.63;;
74102;SDS011;62853;46.166;3.640;2023-06-22T10:48:32;44.00;;;30.55;;
74102;SDS011;62853;46.166;3.640;2023-06-22T10:50:57;36.75;;;30.92;;
74102;SDS011;62853;46.166;3.640;2023-06-22T10:53:23;35.33;;;31.73;;
74102;SDS011;62853;46.166;3.640;2023-06-22T10:55:48;35.88;;;32.28;;
74102;SDS011;62853;46.166;3.640;2023-06-22T10:58:14;36.88;;;33.10;;
74102;SDS011;62853;46.166;3.640;2023-06-22T11:00:39;38.42;;;34.33;;
74102;SDS011;62853;46.166;3.640;2023-06-22T11:03:04;37.22;;;33.22;;
74102;SDS011;62853;46.166;3.640;2023-06-22T11:05:31;45.53;;;35.03;;
74102;SDS011;62853;46.166;3.640;2023-06-22T11:07:57;54.42;;;35.03;;
74102;SDS011;62853;46.166;3.640;2023-06-22T11:10:22;69.68;;;39.35;;
74102;SDS011;62853;46.166;3.640;2023-06-22T11:12:48;128.50;;;47.95;;
74102;SDS011;62853;46.166;3.640;2023-06-22T11:15:13;94.55;;;43.33;;
74102;SDS011;62853;46.166;3.640;2023-06-22T11:17:39;594.47;;;106.65;;
74102;SDS011;62853;46.166;3.640;2023-06-22T11:20:04;53.33;;;41.83;;
74102;SDS011;62853;46.166;3.640;2023-06-22T11:22:36;56.63;;;43.78;;
74102;SDS011;62853;46.166;3.640;2023-06-22T11:25:04;60.50;;;46.78;;
74102;SDS011;62853;46.166;3.640;2023-06-22T11:27:30;200.60;;;62.17;;
74102;SDS011;62853;46.166;3.640;2023-06-22T11:29:55;267.67;;;64.38;;
74102;SDS011;62853;46.166;3.640;2023-06-22T11:32:21;235.90;;;64.25;;
74102;SDS011;62853;46.166;3.640;2023-06-22T11:34:46;62.85;;;46.88;;
74102;SDS011;62853;46.166;3.640;2023-06-22T11:37:12;181.88;;;59.55;;
74102;SDS011;62853;46.166;3.640;2023-06-22T11:39:37;68.22;;;48.85;;
74102;SDS011;62853;46.166;3.640;2023-06-22T11:42:03;232.57;;;69.72;;
74102;SDS011;62853;46.166;3.640;2023-06-22T11:44:28;58.92;;;48.20;;
74102;SDS011;62853;46.166;3.640;2023-06-22T11:46:54;53.25;;;47.63;;
74102;SDS011;62853;46.166;3.640;2023-06-22T11:49:19;99.70;;;57.47;;
74102;SDS011;62853;46.166;3.640;2023-06-22T11:51:44;97.03;;;56.13;;
74102;SDS011;62853;46.166;3.640;2023-06-22T11:54:10;80.68;;;53.50;;
74102;SDS011;62853;46.166;3.640;2023-06-22T11:56:35;56.72;;;50.65;;
74102;SDS011;62853;46.166;3.640;2023-06-22T11:59:01;107.05;;;58.88;;
74102;SDS011;62853;46.166;3.640;2023-06-22T12:01:26;79.00;;;57.53;;
74102;SDS011;62853;46.166;3.640;2023-06-22T12:03:51;68.80;;;57.13;;
74102;SDS011;62853;46.166;3.640;2023-06-22T12:06:17;72.05;;;57.67;;
74102;SDS011;62853;46.166;3.640;2023-06-22T12:08:42;63.25;;;55.88;;
74102;SDS011;62853;46.166;3.640;2023-06-22T12:11:07;62.80;;;54.63;;
74102;SDS011;62853;46.166;3.640;2023-06-22T12:13:33;62.28;;;55.55;;
74102;SDS011;62853;46.166;3.640;2023-06-22T12:15:58;65.45;;;56.78;;
74102;SDS011;62853;46.166;3.640;2023-06-22T12:18:24;57.97;;;51.90;;
74102;SDS011;62853;46.166;3.640;2023-06-22T12:20:49;76.93;;;60.10;;
74102;SDS011;62853;46.166;3.640;2023-06-22T12:23:15;60.47;;;54.15;;
74102;SDS011;62853;46.166;3.640;2023-06-22T12:25:40;60.85;;;54.42;;
74102;SDS011;62853;46.166;3.640;2023-06-22T12:28:05;65.05;;;55.78;;
74102;SDS011;62853;46.166;3.640;2023-06-22T12:30:32;71.22;;;59.92;;
74102;SDS011;62853;46.166;3.640;2023-06-22T12:32:58;61.67;;;55.30;;
74102;SDS011;62853;46.166;3.640;2023-06-22T12:35:24;60.60;;;54.58;;
74102;SDS011;62853;46.166;3.640;2023-06-22T12:37:49;74.28;;;60.85;;
74102;SDS011;62853;46.166;3.640;2023-06-22T12:40:15;67.28;;;60.13;;
74102;SDS011;62853;46.166;3.640;2023-06-22T12:42:40;68.70;;;61.45;;
74102;SDS011;62853;46.166;3.640;2023-06-22T12:45:06;68.80;;;61.67;;
74102;SDS011;62853;46.166;3.640;2023-06-22T12:47:32;64.53;;;58.03;;
74102;SDS011;62853;46.166;3.640;2023-06-22T12:49:58;67.68;;;60.58;;
74102;SDS011;62853;46.166;3.640;2023-06-22T12:52:23;64.03;;;57.22;;
74102;SDS011;62853;46.166;3.640;2023-06-22T12:54:49;70.82;;;62.08;;
74102;SDS011;62853;46.166;3.640;2023-06-22T12:57:14;62.15;;;55.50;;
74102;SDS011;62853;46.166;3.640;2023-06-22T12:59:40;59.17;;;52.97;;
74102;SDS011;62853;46.166;3.640;2023-06-22T13:02:05;58.20;;;52.42;;
74102;SDS011;62853;46.166;3.640;2023-06-22T13:04:31;56.03;;;50.55;;
74102;SDS011;62853;46.166;3.640;2023-06-22T13:06:56;53.47;;;47.92;;
74102;SDS011;62853;46.166;3.640;2023-06-22T13:09:21;58.78;;;52.45;;
74102;SDS011;62853;46.166;3.640;2023-06-22T13:11:47;53.35;;;48.15;;
74102;SDS011;62853;46.166;3.640;2023-06-22T13:14:12;63.63;;;53.63;;
74102;SDS011;62853;46.166;3.640;2023-06-22T13:16:38;60.97;;;54.65;;
74102;SDS011;62853;46.166;3.640;2023-06-22T13:19:03;59.25;;;53.05;;
74102;SDS011;62853;46.166;3.640;2023-06-22T13:21:29;73.70;;;57.92;;
74102;SDS011;62853;46.166;3.640;2023-06-22T13:23:55;60.75;;;54.65;;
74102;SDS011;62853;46.166;3.640;2023-06-22T13:26:21;54.65;;;49.10;;
74102;SDS011;62853;46.166;3.640;2023-06-22T13:28:47;54.90;;;49.45;;
74102;SDS011;62853;46.166;3.640;2023-06-22T13:31:12;55.03;;;49.42;;
74102;SDS011;62853;46.166;3.640;2023-06-22T13:33:37;54.20;;;48.67;;
74102;SDS011;62853;46.166;3.640;2023-06-22T13:36:03;52.28;;;47.38;;
74102;SDS011;62853;46.166;3.640;2023-06-22T13:38:31;50.80;;;45.50;;
74102;SDS011;62853;46.166;3.640;2023-06-22T13:40:57;49.22;;;44.67;;
74102;SDS011;62853;46.166;3.640;2023-06-22T13:43:24;53.35;;;47.47;;
74102;SDS011;62853;46.166;3.640;2023-06-22T13:45:51;63.65;;;51.60;;
74102;SDS011;62853;46.166;3.640;2023-06-22T13:48:17;52.08;;;46.25;;
74102;SDS011;62853;46.166;3.640;2023-06-22T13:50:42;48.72;;;43.90;;
74102;SDS011;62853;46.166;3.640;2023-06-22T13:53:08;54.65;;;48.90;;
74102;SDS011;62853;46.166;3.640;2023-06-22T13:55:33;54.17;;;48.28;;
74102;SDS011;62853;46.166;3.640;2023-06-22T13:57:59;48.95;;;44.05;;
74102;SDS011;62853;46.166;3.640;2023-06-22T14:00:24;50.28;;;45.25;;
74102;SDS011;62853;46.166;3.640;2023-06-22T14:02:50;49.78;;;44.80;;
74102;SDS011;62853;46.166;3.640;2023-06-22T14:05:16;52.75;;;47.03;;
74102;SDS011;62853;46.166;3.640;2023-06-22T14:07:41;51.25;;;45.83;;
74102;SDS011;62853;46.166;3.640;2023-06-22T14:10:07;55.05;;;49.05;;
74102;SDS011;62853;46.166;3.640;2023-06-22T14:12:32;47.38;;;42.95;;
74102;SDS011;62853;46.166;3.640;2023-06-22T14:14:58;49.25;;;44.55;;
74102;SDS011;62853;46.166;3.640;2023-06-22T14:17:24;48.40;;;43.50;;
74102;SDS011;62853;46.166;3.640;2023-06-22T14:19:51;47.47;;;42.45;;
74102;SDS011;62853;46.166;3.640;2023-06-22T14:22:18;64.95;;;45.88;;
74102;SDS011;62853;46.166;3.640;2023-06-22T14:24:44;69.13;;;49.58;;
74102;SDS011;62853;46.166;3.640;2023-06-22T14:27:09;70.55;;;48.72;;
74102;SDS011;62853;46.166;3.640;2023-06-22T14:29:35;60.00;;;49.10;;
74102;SDS011;62853;46.166;3.640;2023-06-22T14:32:00;52.92;;;47.10;;
74102;SDS011;62853;46.166;3.640;2023-06-22T14:34:26;62.60;;;49.83;;
74102;SDS011;62853;46.166;3.640;2023-06-22T14:36:51;58.47;;;51.75;;
74102;SDS011;62853;46.166;3.640;2023-06-22T14:39:16;86.72;;;55.92;;
74102;SDS011;62853;46.166;3.640;2023-06-22T14:41:42;91.85;;;58.25;;
74102;SDS011;62853;46.166;3.640;2023-06-22T14:44:07;63.55;;;54.10;;
74102;SDS011;62853;46.166;3.640;2023-06-22T14:46:33;62.00;;;51.28;;
74102;SDS011;62853;46.166;3.640;2023-06-22T14:48:58;125.15;;;59.25;;
74102;SDS011;62853;46.166;3.640;2023-06-22T14:51:23;76.68;;;57.63;;
74102;SDS011;62853;46.166;3.640;2023-06-22T14:53:49;82.50;;;56.63;;
74102;SDS011;62853;46.166;3.640;2023-06-22T14:56:14;101.25;;;55.90;;
74102;SDS011;62853;46.166;3.640;2023-06-22T14:58:40;85.28;;;55.92;;
74102;SDS011;62853;46.166;3.640;2023-06-22T15:01:10;103.22;;;63.05;;
74102;SDS011;62853;46.166;3.640;2023-06-22T15:03:36;116.30;;;63.30;;
74102;SDS011;62853;46.166;3.640;2023-06-22T15:06:01;78.00;;;60.08;;
74102;SDS011;62853;46.166;3.640;2023-06-22T15:08:28;76.68;;;58.13;;
74102;SDS011;62853;46.166;3.640;2023-06-22T15:10:53;81.72;;;59.55;;
74102;SDS011;62853;46.166;3.640;2023-06-22T15:13:19;73.22;;;54.17;;
74102;SDS011;62853;46.166;3.640;2023-06-22T15:15:48;202.25;;;73.82;;
74102;SDS011;62853;46.166;3.640;2023-06-22T15:18:16;113.90;;;64.53;;
74102;SDS011;62853;46.166;3.640;2023-06-22T15:20:42;144.27;;;68.82;;
74102;SDS011;62853;46.166;3.640;2023-06-22T15:23:12;247.50;;;82.47;;
74102;SDS011;62853;46.166;3.640;2023-06-22T15:25:38;97.82;;;63.80;;
74102;SDS011;62853;46.166;3.640;2023-06-22T15:28:03;78.38;;;60.53;;
74102;SDS011;62853;46.166;3.640;2023-06-22T15:30:29;152.05;;;69.88;;